sensor_id;sensor_type;location;lat;lon;timestamp;temperature;humidity
73547;SHT30;61807;48.384;-4.386;2023-01-20T00:01:37;4.11;74.31
73547;SHT30;61807;48.384;-4.386;2023-01-20T00:04:03;4.09;74.24
73547;SHT30;61807;48.384;-4.386;2023-01-20T00:06:29;4.09;74.41
73547;SHT30;61807;48.384;-4.386;2023-01-20T00:08:56;4.09;74.56
73547;SHT30;61807;48.384;-4.386;2023-01-20T00:11:22;4.16;74.59
73547;SHT30;61807;48.384;-4.386;2023-01-20T00:13:48;4.18;74.52
73547;SHT30;61807;48.384;-4.386;2023-01-20T00:16:17;4.17;74.64
73547;SHT30;61807;48.384;-4.386;2023-01-20T00:18:42;4.20;74.70
73547;SHT30;61807;48.384;-4.386;2023-01-20T00:21:10;4.20;74.49
73547;SHT30;61807;48.384;-4.386;2023-01-20T00:23:37;4.14;74.35
73547;SHT30;61807;48.384;-4.386;2023-01-20T00:26:05;4.10;74.27
73547;SHT30;61807;48.384;-4.386;2023-01-20T00:28:30;4.06;74.40
73547;SHT30;61807;48.384;-4.386;2023-01-20T00:30:56;4.00;74.71
73547;SHT30;61807;48.384;-4.386;2023-01-20T00:33:21;3.96;74.87
73547;SHT30;61807;48.384;-4.386;2023-01-20T00:35:46;3.97;75.02
73547;SHT30;61807;48.384;-4.386;2023-01-20T00:38:12;4.00;75.09
73547;SHT30;61807;48.384;-4.386;2023-01-20T00:40:37;4.04;74.97
73547;SHT30;61807;48.384;-4.386;2023-01-20T00:43:02;4.00;74.97
73547;SHT30;61807;48.384;-4.386;2023-01-20T00:45:28;4.00;75.00
73547;SHT30;61807;48.384;-4.386;2023-01-20T00:47:53;4.00;75.07
73547;SHT30;61807;48.384;-4.386;2023-01-20T00:50:18;4.04;75.10
73547;SHT30;61807;48.384;-4.386;2023-01-20T00:52:44;4.06;75.07
73547;SHT30;61807;48.384;-4.386;2023-01-20T00:55:09;4.10;74.98
73547;SHT30;61807;48.384;-4.386;2023-01-20T00:57:35;4.07;75.12
73547;SHT30;61807;48.384;-4.386;2023-01-20T01:00:00;4.10;75.21
73547;SHT30;61807;48.384;-4.386;2023-01-20T01:02:25;4.10;75.22
73547;SHT30;61807;48.384;-4.386;2023-01-20T01:04:51;4.09;75.06
73547;SHT30;61807;48.384;-4.386;2023-01-20T01:07:17;4.07;75.07
73547;SHT30;61807;48.384;-4.386;2023-01-20T01:09:42;4.03;75.03
73547;SHT30;61807;48.384;-4.386;2023-01-20T01:12:08;4.04;74.99
73547;SHT30;61807;48.384;-4.386;2023-01-20T01:14:33;4.00;75.09
73547;SHT30;61807;48.384;-4.386;2023-01-20T01:16:59;4.02;75.23
73547;SHT30;61807;48.384;-4.386;2023-01-20T01:19:24;4.04;75.14
73547;SHT30;61807;48.384;-4.386;2023-01-20T01:21:50;4.02;75.25
73547;SHT30;61807;48.384;-4.386;2023-01-20T01:24:15;4.03;75.61
73547;SHT30;61807;48.384;-4.386;2023-01-20T01:26:40;4.04;75.61
73547;SHT30;61807;48.384;-4.386;2023-01-20T01:29:06;4.06;75.35
73547;SHT30;61807;48.384;-4.386;2023-01-20T01:31:31;4.03;75.41
73547;SHT30;61807;48.384;-4.386;2023-01-20T01:33:56;4.04;75.55
73547;SHT30;61807;48.384;-4.386;2023-01-20T01:36:22;4.06;75.75
73547;SHT30;61807;48.384;-4.386;2023-01-20T01:38:47;4.09;75.47
73547;SHT30;61807;48.384;-4.386;2023-01-20T01:41:14;4.09;75.35
73547;SHT30;61807;48.384;-4.386;2023-01-20T01:43:59;4.09;75.49
73547;SHT30;61807;48.384;-4.386;2023-01-20T01:46:25;4.09;75.46
73547;SHT30;61807;48.384;-4.386;2023-01-20T01:48:51;4.09;75.40
73547;SHT30;61807;48.384;-4.386;2023-01-20T01:51:22;4.09;75.37
73547;SHT30;61807;48.384;-4.386;2023-01-20T01:53:53;4.04;75.30
73547;SHT30;61807;48.384;-4.386;2023-01-20T01:56:23;4.02;75.30
73547;SHT30;61807;48.384;-4.386;2023-01-20T01:58:50;3.97;75.24
73547;SHT30;61807;48.384;-4.386;2023-01-20T02:01:17;3.95;75.25
73547;SHT30;61807;48.384;-4.386;2023-01-20T02:03:49;3.93;75.41
73547;SHT30;61807;48.384;-4.386;2023-01-20T02:06:18;3.90;75.39
73547;SHT30;61807;48.384;-4.386;2023-01-20T02:08:45;3.87;75.40
73547;SHT30;61807;48.384;-4.386;2023-01-20T02:11:11;3.89;75.45
73547;SHT30;61807;48.384;-4.386;2023-01-20T02:13:36;3.85;75.42
73547;SHT30;61807;48.384;-4.386;2023-01-20T02:22:16;3.76;75.39
73547;SHT30;61807;48.384;-4.386;2023-01-20T02:30:16;3.75;75.30
73547;SHT30;61807;48.384;-4.386;2023-01-20T02:35:48;3.71;75.53
73547;SHT30;61807;48.384;-4.386;2023-01-20T02:38:27;3.71;75.57
73547;SHT30;61807;48.384;-4.386;2023-01-20T02:40:59;3.71;75.60
73547;SHT30;61807;48.384;-4.386;2023-01-20T02:46:27;3.71;75.64
73547;SHT30;61807;48.384;-4.386;2023-01-20T02:49:16;3.72;75.73
73547;SHT30;61807;48.384;-4.386;2023-01-20T02:51:55;3.74;75.68
73547;SHT30;61807;48.384;-4.386;2023-01-20T02:54:25;3.74;75.68
73547;SHT30;61807;48.384;-4.386;2023-01-20T02:56:53;3.76;75.74
73547;SHT30;61807;48.384;-4.386;2023-01-20T02:59:24;3.75;75.73
73547;SHT30;61807;48.384;-4.386;2023-01-20T03:01:57;3.75;75.96
73547;SHT30;61807;48.384;-4.386;2023-01-20T03:04:29;3.81;76.00
73547;SHT30;61807;48.384;-4.386;2023-01-20T03:06:58;3.81;76.02
73547;SHT30;61807;48.384;-4.386;2023-01-20T03:09:30;3.79;75.94
73547;SHT30;61807;48.384;-4.386;2023-01-20T03:12:01;3.83;75.97
73547;SHT30;61807;48.384;-4.386;2023-01-20T03:14:28;3.85;76.13
73547;SHT30;61807;48.384;-4.386;2023-01-20T03:16:53;3.85;76.10
73547;SHT30;61807;48.384;-4.386;2023-01-20T03:19:19;3.89;76.07
73547;SHT30;61807;48.384;-4.386;2023-01-20T03:21:44;3.87;76.10
73547;SHT30;61807;48.384;-4.386;2023-01-20T03:24:10;3.90;76.06
73547;SHT30;61807;48.384;-4.386;2023-01-20T03:26:37;3.90;76.09
73547;SHT30;61807;48.384;-4.386;2023-01-20T03:29:08;3.96;76.02
73547;SHT30;61807;48.384;-4.386;2023-01-20T03:31:38;3.97;75.97
73547;SHT30;61807;48.384;-4.386;2023-01-20T03:34:09;3.99;75.91
73547;SHT30;61807;48.384;-4.386;2023-01-20T03:36:37;3.99;75.96
73547;SHT30;61807;48.384;-4.386;2023-01-20T03:39:04;3.97;75.81
73547;SHT30;61807;48.384;-4.386;2023-01-20T03:52:48;3.99;75.90
73547;SHT30;61807;48.384;-4.386;2023-01-20T03:55:29;4.04;75.83
73547;SHT30;61807;48.384;-4.386;2023-01-20T03:58:29;4.02;75.65
73547;SHT30;61807;48.384;-4.386;2023-01-20T04:00:55;3.97;75.50
73547;SHT30;61807;48.384;-4.386;2023-01-20T04:03:30;3.93;75.58
73547;SHT30;61807;48.384;-4.386;2023-01-20T04:05:58;3.89;75.61
73547;SHT30;61807;48.384;-4.386;2023-01-20T04:08:28;3.83;75.79
73547;SHT30;61807;48.384;-4.386;2023-01-20T04:10:57;3.82;75.96
73547;SHT30;61807;48.384;-4.386;2023-01-20T04:13:24;3.85;76.06
73547;SHT30;61807;48.384;-4.386;2023-01-20T04:15:49;3.90;76.16
73547;SHT30;61807;48.384;-4.386;2023-01-20T04:18:17;3.95;76.19
73547;SHT30;61807;48.384;-4.386;2023-01-20T04:20:47;3.99;76.23
73547;SHT30;61807;48.384;-4.386;2023-01-20T04:23:19;4.03;76.27
73547;SHT30;61807;48.384;-4.386;2023-01-20T04:25:46;4.09;76.19
73547;SHT30;61807;48.384;-4.386;2023-01-20T04:28:11;4.13;75.98
73547;SHT30;61807;48.384;-4.386;2023-01-20T04:30:37;4.16;75.91
73547;SHT30;61807;48.384;-4.386;2023-01-20T04:33:02;4.14;75.75
73547;SHT30;61807;48.384;-4.386;2023-01-20T04:35:27;4.13;75.79
73547;SHT30;61807;48.384;-4.386;2023-01-20T04:37:53;4.14;75.90
73547;SHT30;61807;48.384;-4.386;2023-01-20T04:40:18;4.18;75.94
73547;SHT30;61807;48.384;-4.386;2023-01-20T04:42:43;4.24;76.03
73547;SHT30;61807;48.384;-4.386;2023-01-20T04:45:13;4.33;76.14
73547;SHT30;61807;48.384;-4.386;2023-01-20T04:47:39;4.36;76.10
73547;SHT30;61807;48.384;-4.386;2023-01-20T04:50:05;4.45;76.11
73547;SHT30;61807;48.384;-4.386;2023-01-20T04:52:30;4.54;75.97
73547;SHT30;61807;48.384;-4.386;2023-01-20T04:54:55;4.64;75.69
73547;SHT30;61807;48.384;-4.386;2023-01-20T04:57:21;4.71;75.76
73547;SHT30;61807;48.384;-4.386;2023-01-20T04:59:46;4.75;75.63
73547;SHT30;61807;48.384;-4.386;2023-01-20T05:02:11;4.76;75.51
73547;SHT30;61807;48.384;-4.386;2023-01-20T05:04:37;4.81;75.84
73547;SHT30;61807;48.384;-4.386;2023-01-20T05:07:02;4.91;75.76
73547;SHT30;61807;48.384;-4.386;2023-01-20T05:09:28;4.96;75.58
73547;SHT30;61807;48.384;-4.386;2023-01-20T05:11:53;5.03;75.75
73547;SHT30;61807;48.384;-4.386;2023-01-20T05:14:18;5.15;75.56
73547;SHT30;61807;48.384;-4.386;2023-01-20T05:16:44;5.19;75.61
73547;SHT30;61807;48.384;-4.386;2023-01-20T05:19:11;5.29;75.90
73547;SHT30;61807;48.384;-4.386;2023-01-20T05:21:36;5.40;75.98
73547;SHT30;61807;48.384;-4.386;2023-01-20T05:24:02;5.53;75.74
73547;SHT30;61807;48.384;-4.386;2023-01-20T05:26:27;5.68;75.46
73547;SHT30;61807;48.384;-4.386;2023-01-20T05:28:53;5.78;75.21
73547;SHT30;61807;48.384;-4.386;2023-01-20T05:31:18;5.90;75.01
73547;SHT30;61807;48.384;-4.386;2023-01-20T05:33:43;5.92;74.98
73547;SHT30;61807;48.384;-4.386;2023-01-20T05:36:10;5.95;74.90
73547;SHT30;61807;48.384;-4.386;2023-01-20T05:38:36;6.02;74.81
73547;SHT30;61807;48.384;-4.386;2023-01-20T05:41:03;6.11;74.75
73547;SHT30;61807;48.384;-4.386;2023-01-20T05:43:28;6.16;74.66
73547;SHT30;61807;48.384;-4.386;2023-01-20T05:45:54;6.18;74.44
73547;SHT30;61807;48.384;-4.386;2023-01-20T05:48:19;6.22;74.33
73547;SHT30;61807;48.384;-4.386;2023-01-20T05:50:46;6.29;74.07
73547;SHT30;61807;48.384;-4.386;2023-01-20T05:53:11;6.29;74.24
73547;SHT30;61807;48.384;-4.386;2023-01-20T05:55:37;6.37;74.13
73547;SHT30;61807;48.384;-4.386;2023-01-20T05:58:02;6.46;73.92
73547;SHT30;61807;48.384;-4.386;2023-01-20T06:00:28;6.52;73.75
73547;SHT30;61807;48.384;-4.386;2023-01-20T06:02:54;6.56;73.77
73547;SHT30;61807;48.384;-4.386;2023-01-20T06:05:19;6.61;73.79
73547;SHT30;61807;48.384;-4.386;2023-01-20T06:07:44;6.66;73.70
73547;SHT30;61807;48.384;-4.386;2023-01-20T06:10:10;6.73;73.33
73547;SHT30;61807;48.384;-4.386;2023-01-20T06:12:36;6.73;73.27
73547;SHT30;61807;48.384;-4.386;2023-01-20T06:15:02;6.76;73.04
73547;SHT30;61807;48.384;-4.386;2023-01-20T06:17:28;6.74;72.89
73547;SHT30;61807;48.384;-4.386;2023-01-20T06:19:53;6.70;72.86
73547;SHT30;61807;48.384;-4.386;2023-01-20T06:22:19;6.66;72.97
73547;SHT30;61807;48.384;-4.386;2023-01-20T06:24:45;6.57;73.00
73547;SHT30;61807;48.384;-4.386;2023-01-20T06:27:11;6.60;73.14
73547;SHT30;61807;48.384;-4.386;2023-01-20T06:29:36;6.60;73.13
73547;SHT30;61807;48.384;-4.386;2023-01-20T06:32:02;6.60;73.09
73547;SHT30;61807;48.384;-4.386;2023-01-20T06:34:27;6.57;73.12
73547;SHT30;61807;48.384;-4.386;2023-01-20T06:36:53;6.58;73.32
73547;SHT30;61807;48.384;-4.386;2023-01-20T06:39:18;6.64;73.29
73547;SHT30;61807;48.384;-4.386;2023-01-20T06:41:44;6.67;73.30
73547;SHT30;61807;48.384;-4.386;2023-01-20T06:44:09;6.66;73.30
73547;SHT30;61807;48.384;-4.386;2023-01-20T06:46:34;6.67;73.30
73547;SHT30;61807;48.384;-4.386;2023-01-20T06:49:00;6.58;73.20
73547;SHT30;61807;48.384;-4.386;2023-01-20T06:51:27;6.56;73.39
73547;SHT30;61807;48.384;-4.386;2023-01-20T06:53:53;6.50;73.21
73547;SHT30;61807;48.384;-4.386;2023-01-20T06:56:19;6.43;73.35
73547;SHT30;61807;48.384;-4.386;2023-01-20T06:58:45;6.42;73.40
73547;SHT30;61807;48.384;-4.386;2023-01-20T07:01:22;6.39;73.40
73547;SHT30;61807;48.384;-4.386;2023-01-20T07:03:47;6.30;73.36
73547;SHT30;61807;48.384;-4.386;2023-01-20T07:06:16;6.28;73.53
73547;SHT30;61807;48.384;-4.386;2023-01-20T07:08:45;6.26;73.58
73547;SHT30;61807;48.384;-4.386;2023-01-20T07:11:11;6.22;73.57
73547;SHT30;61807;48.384;-4.386;2023-01-20T07:13:37;6.21;73.46
73547;SHT30;61807;48.384;-4.386;2023-01-20T07:16:02;6.13;73.56
73547;SHT30;61807;48.384;-4.386;2023-01-20T07:18:28;6.13;73.53
73547;SHT30;61807;48.384;-4.386;2023-01-20T07:20:54;6.08;73.55
73547;SHT30;61807;48.384;-4.386;2023-01-20T07:23:19;6.03;73.36
73547;SHT30;61807;48.384;-4.386;2023-01-20T07:25:45;5.99;73.43
73547;SHT30;61807;48.384;-4.386;2023-01-20T07:28:10;5.95;73.43
73547;SHT30;61807;48.384;-4.386;2023-01-20T07:30:36;5.91;73.50
73547;SHT30;61807;48.384;-4.386;2023-01-20T07:33:01;5.90;73.44
73547;SHT30;61807;48.384;-4.386;2023-01-20T07:35:27;5.88;73.36
73547;SHT30;61807;48.384;-4.386;2023-01-20T07:37:52;5.85;73.39
73547;SHT30;61807;48.384;-4.386;2023-01-20T07:40:18;5.84;73.85
73547;SHT30;61807;48.384;-4.386;2023-01-20T07:42:43;5.88;73.89
73547;SHT30;61807;48.384;-4.386;2023-01-20T07:45:09;5.88;73.79
73547;SHT30;61807;48.384;-4.386;2023-01-20T07:47:34;5.85;73.66
73547;SHT30;61807;48.384;-4.386;2023-01-20T07:50:00;5.81;73.72
73547;SHT30;61807;48.384;-4.386;2023-01-20T07:52:25;5.77;73.84
73547;SHT30;61807;48.384;-4.386;2023-01-20T07:54:50;5.72;74.05
73547;SHT30;61807;48.384;-4.386;2023-01-20T07:57:16;5.79;74.26
73547;SHT30;61807;48.384;-4.386;2023-01-20T07:59:41;5.81;74.00
73547;SHT30;61807;48.384;-4.386;2023-01-20T08:02:08;5.82;73.97
73547;SHT30;61807;48.384;-4.386;2023-01-20T08:04:33;5.79;73.93
73547;SHT30;61807;48.384;-4.386;2023-01-20T08:06:59;5.78;73.80
73547;SHT30;61807;48.384;-4.386;2023-01-20T08:09:24;5.74;73.90
73547;SHT30;61807;48.384;-4.386;2023-01-20T08:11:50;5.77;73.85
73547;SHT30;61807;48.384;-4.386;2023-01-20T08:14:15;5.87;73.61
73547;SHT30;61807;48.384;-4.386;2023-01-20T08:16:41;5.98;73.25
73547;SHT30;61807;48.384;-4.386;2023-01-20T08:19:06;6.08;72.97
73547;SHT30;61807;48.384;-4.386;2023-01-20T08:21:32;6.18;72.68
73547;SHT30;61807;48.384;-4.386;2023-01-20T08:23:59;6.21;72.41
73547;SHT30;61807;48.384;-4.386;2023-01-20T08:26:26;6.22;72.11
73547;SHT30;61807;48.384;-4.386;2023-01-20T08:28:54;6.26;71.68
73547;SHT30;61807;48.384;-4.386;2023-01-20T08:31:22;6.30;71.77
73547;SHT30;61807;48.384;-4.386;2023-01-20T08:33:51;6.36;71.55
73547;SHT30;61807;48.384;-4.386;2023-01-20T08:36:21;6.39;71.58
73547;SHT30;61807;48.384;-4.386;2023-01-20T08:38:47;6.43;71.63
73547;SHT30;61807;48.384;-4.386;2023-01-20T08:41:18;6.47;71.72
73547;SHT30;61807;48.384;-4.386;2023-01-20T08:43:44;6.54;71.94
73547;SHT30;61807;48.384;-4.386;2023-01-20T08:46:12;6.47;72.09
73547;SHT30;61807;48.384;-4.386;2023-01-20T08:48:38;6.42;72.30
73547;SHT30;61807;48.384;-4.386;2023-01-20T08:51:06;6.34;72.46
73547;SHT30;61807;48.384;-4.386;2023-01-20T08:53:32;6.30;72.63
73547;SHT30;61807;48.384;-4.386;2023-01-20T08:55:59;6.26;72.73
73547;SHT30;61807;48.384;-4.386;2023-01-20T08:58:25;6.33;72.67
73547;SHT30;61807;48.384;-4.386;2023-01-20T09:00:52;6.37;72.34
73547;SHT30;61807;48.384;-4.386;2023-01-20T09:03:17;6.44;72.19
73547;SHT30;61807;48.384;-4.386;2023-01-20T09:05:43;6.52;72.09
73547;SHT30;61807;48.384;-4.386;2023-01-20T09:08:08;6.58;71.94
73547;SHT30;61807;48.384;-4.386;2023-01-20T09:10:34;6.63;71.72
73547;SHT30;61807;48.384;-4.386;2023-01-20T09:13:00;6.69;71.59
73547;SHT30;61807;48.384;-4.386;2023-01-20T09:15:25;6.69;71.09
73547;SHT30;61807;48.384;-4.386;2023-01-20T09:17:51;6.70;71.08
73547;SHT30;61807;48.384;-4.386;2023-01-20T09:20:16;6.73;70.92
73547;SHT30;61807;48.384;-4.386;2023-01-20T09:22:42;6.77;70.84
73547;SHT30;61807;48.384;-4.386;2023-01-20T09:25:08;6.80;70.47
73547;SHT30;61807;48.384;-4.386;2023-01-20T09:27:34;6.81;70.21
73547;SHT30;61807;48.384;-4.386;2023-01-20T09:30:00;6.81;70.13
73547;SHT30;61807;48.384;-4.386;2023-01-20T09:32:26;6.80;70.06
73547;SHT30;61807;48.384;-4.386;2023-01-20T09:34:51;6.83;70.00
73547;SHT30;61807;48.384;-4.386;2023-01-20T09:37:17;6.85;69.91
73547;SHT30;61807;48.384;-4.386;2023-01-20T09:40:01;6.88;70.00
73547;SHT30;61807;48.384;-4.386;2023-01-20T09:42:57;6.94;69.88
73547;SHT30;61807;48.384;-4.386;2023-01-20T09:45:51;6.98;69.99
73547;SHT30;61807;48.384;-4.386;2023-01-20T09:51:17;7.11;70.06
73547;SHT30;61807;48.384;-4.386;2023-01-20T09:54:24;7.18;70.18
73547;SHT30;61807;48.384;-4.386;2023-01-20T09:56:51;7.22;69.97
73547;SHT30;61807;48.384;-4.386;2023-01-20T09:59:22;7.26;69.78
73547;SHT30;61807;48.384;-4.386;2023-01-20T10:01:56;7.25;69.40
73547;SHT30;61807;48.384;-4.386;2023-01-20T10:04:49;7.33;69.60
73547;SHT30;61807;48.384;-4.386;2023-01-20T10:07:32;7.40;69.39
73547;SHT30;61807;48.384;-4.386;2023-01-20T10:10:22;7.49;69.30
73547;SHT30;61807;48.384;-4.386;2023-01-20T10:15:24;7.60;69.07
73547;SHT30;61807;48.384;-4.386;2023-01-20T10:17:57;7.62;69.02
73547;SHT30;61807;48.384;-4.386;2023-01-20T10:23:04;7.62;68.83
73547;SHT30;61807;48.384;-4.386;2023-01-20T10:25:37;7.59;68.91
73547;SHT30;61807;48.384;-4.386;2023-01-20T10:28:09;7.60;69.29
73547;SHT30;61807;48.384;-4.386;2023-01-20T10:30:36;7.66;69.40
73547;SHT30;61807;48.384;-4.386;2023-01-20T10:33:11;7.70;69.26
73547;SHT30;61807;48.384;-4.386;2023-01-20T10:35:41;7.74;69.16
73547;SHT30;61807;48.384;-4.386;2023-01-20T10:38:14;7.76;69.18
73547;SHT30;61807;48.384;-4.386;2023-01-20T10:41:16;7.83;69.03
73547;SHT30;61807;48.384;-4.386;2023-01-20T10:43:44;7.80;69.02
73547;SHT30;61807;48.384;-4.386;2023-01-20T10:56:48;7.77;68.94
73547;SHT30;61807;48.384;-4.386;2023-01-20T10:59:35;7.74;68.90
73547;SHT30;61807;48.384;-4.386;2023-01-20T11:02:21;7.81;69.01
73547;SHT30;61807;48.384;-4.386;2023-01-20T11:04:58;7.83;69.03
73547;SHT30;61807;48.384;-4.386;2023-01-20T11:07:24;7.86;68.92
73547;SHT30;61807;48.384;-4.386;2023-01-20T11:09:50;7.93;69.12
73547;SHT30;61807;48.384;-4.386;2023-01-20T11:12:18;7.98;69.04
73547;SHT30;61807;48.384;-4.386;2023-01-20T11:14:45;8.04;68.56
73547;SHT30;61807;48.384;-4.386;2023-01-20T11:17:17;8.08;68.92
73547;SHT30;61807;48.384;-4.386;2023-01-20T11:22:11;8.17;68.74
73547;SHT30;61807;48.384;-4.386;2023-01-20T11:24:41;8.29;68.80
73547;SHT30;61807;48.384;-4.386;2023-01-20T11:27:13;8.34;68.57
73547;SHT30;61807;48.384;-4.386;2023-01-20T11:29:44;8.39;68.61
73547;SHT30;61807;48.384;-4.386;2023-01-20T11:34:54;8.46;68.40
73547;SHT30;61807;48.384;-4.386;2023-01-20T11:37:26;8.50;68.46
73547;SHT30;61807;48.384;-4.386;2023-01-20T11:39:57;8.52;68.49
73547;SHT30;61807;48.384;-4.386;2023-01-20T11:42:58;8.55;68.46
73547;SHT30;61807;48.384;-4.386;2023-01-20T11:45:31;8.56;68.54
73547;SHT30;61807;48.384;-4.386;2023-01-20T11:48:05;8.56;68.62
73547;SHT30;61807;48.384;-4.386;2023-01-20T11:50:39;8.56;68.77
73547;SHT30;61807;48.384;-4.386;2023-01-20T11:55:45;8.65;68.85
73547;SHT30;61807;48.384;-4.386;2023-01-20T11:58:17;8.69;68.80
73547;SHT30;61807;48.384;-4.386;2023-01-20T12:00:43;8.73;68.85
73547;SHT30;61807;48.384;-4.386;2023-01-20T12:08:18;8.77;68.98
73547;SHT30;61807;48.384;-4.386;2023-01-20T12:10:46;8.83;68.93
73547;SHT30;61807;48.384;-4.386;2023-01-20T12:13:19;8.84;68.78
73547;SHT30;61807;48.384;-4.386;2023-01-20T12:15:52;8.83;68.93
73547;SHT30;61807;48.384;-4.386;2023-01-20T12:18:36;8.87;69.01
73547;SHT30;61807;48.384;-4.386;2023-01-20T12:21:10;8.93;69.11
73547;SHT30;61807;48.384;-4.386;2023-01-20T12:24:08;8.96;69.11
73547;SHT30;61807;48.384;-4.386;2023-01-20T12:26:37;9.06;69.15
73547;SHT30;61807;48.384;-4.386;2023-01-20T12:29:16;9.10;69.06
73547;SHT30;61807;48.384;-4.386;2023-01-20T12:31:43;9.14;69.05
73547;SHT30;61807;48.384;-4.386;2023-01-20T12:34:21;9.17;69.03
73547;SHT30;61807;48.384;-4.386;2023-01-20T12:44:50;9.20;69.29
73547;SHT30;61807;48.384;-4.386;2023-01-20T13:00:40;9.89;69.02
73547;SHT30;61807;48.384;-4.386;2023-01-20T13:08:26;10.75;67.69
73547;SHT30;61807;48.384;-4.386;2023-01-20T13:14:29;10.63;67.39
73547;SHT30;61807;48.384;-4.386;2023-01-20T13:17:21;10.63;67.56
73547;SHT30;61807;48.384;-4.386;2023-01-20T13:19:48;10.84;67.80
73547;SHT30;61807;48.384;-4.386;2023-01-20T13:22:21;10.99;67.37
73547;SHT30;61807;48.384;-4.386;2023-01-20T13:24:51;10.99;67.24
73547;SHT30;61807;48.384;-4.386;2023-01-20T13:27:29;10.91;66.45
73547;SHT30;61807;48.384;-4.386;2023-01-20T13:29:58;10.84;66.67
73547;SHT30;61807;48.384;-4.386;2023-01-20T13:32:41;10.75;67.11
73547;SHT30;61807;48.384;-4.386;2023-01-20T13:37:48;10.63;67.17
73547;SHT30;61807;48.384;-4.386;2023-01-20T13:48:35;10.55;67.50
73547;SHT30;61807;48.384;-4.386;2023-01-20T13:53:50;10.51;67.57
73547;SHT30;61807;48.384;-4.386;2023-01-20T13:56:30;10.44;67.71
73547;SHT30;61807;48.384;-4.386;2023-01-20T13:58:58;10.41;67.85
73547;SHT30;61807;48.384;-4.386;2023-01-20T14:01:25;10.43;68.01
73547;SHT30;61807;48.384;-4.386;2023-01-20T14:04:05;10.41;68.08
73547;SHT30;61807;48.384;-4.386;2023-01-20T14:06:31;10.44;68.23
73547;SHT30;61807;48.384;-4.386;2023-01-20T14:08:59;10.43;68.19
73547;SHT30;61807;48.384;-4.386;2023-01-20T14:11:26;10.36;68.28
73547;SHT30;61807;48.384;-4.386;2023-01-20T14:13:59;10.32;68.23
73547;SHT30;61807;48.384;-4.386;2023-01-20T14:16:40;10.26;68.40
73547;SHT30;61807;48.384;-4.386;2023-01-20T14:19:29;10.20;68.59
73547;SHT30;61807;48.384;-4.386;2023-01-20T14:22:01;10.23;68.79
73547;SHT30;61807;48.384;-4.386;2023-01-20T14:24:31;10.20;68.71
73547;SHT30;61807;48.384;-4.386;2023-01-20T14:27:16;10.17;68.64
73547;SHT30;61807;48.384;-4.386;2023-01-20T14:29:44;10.18;68.73
73547;SHT30;61807;48.384;-4.386;2023-01-20T14:32:32;10.14;68.79
73547;SHT30;61807;48.384;-4.386;2023-01-20T14:35:00;10.17;68.89
73547;SHT30;61807;48.384;-4.386;2023-01-20T14:37:34;10.18;68.83
73547;SHT30;61807;48.384;-4.386;2023-01-20T14:42:30;10.20;68.90
73547;SHT30;61807;48.384;-4.386;2023-01-20T14:44:56;10.17;68.91
73547;SHT30;61807;48.384;-4.386;2023-01-20T14:47:23;10.20;68.95
73547;SHT30;61807;48.384;-4.386;2023-01-20T14:49:51;10.20;69.02
73547;SHT30;61807;48.384;-4.386;2023-01-20T14:52:25;10.17;68.94
73547;SHT30;61807;48.384;-4.386;2023-01-20T14:54:52;10.16;69.13
73547;SHT30;61807;48.384;-4.386;2023-01-20T14:59:47;10.18;69.32
73547;SHT30;61807;48.384;-4.386;2023-01-20T15:02:28;10.21;69.26
73547;SHT30;61807;48.384;-4.386;2023-01-20T15:04:54;10.23;69.11
73547;SHT30;61807;48.384;-4.386;2023-01-20T15:07:21;10.20;69.17
73547;SHT30;61807;48.384;-4.386;2023-01-20T15:09:53;10.18;69.37
73547;SHT30;61807;48.384;-4.386;2023-01-20T15:12:35;10.21;69.51
73547;SHT30;61807;48.384;-4.386;2023-01-20T15:15:10;10.29;69.61
73547;SHT30;61807;48.384;-4.386;2023-01-20T15:18:01;10.32;69.66
73547;SHT30;61807;48.384;-4.386;2023-01-20T15:20:31;10.36;69.62
73547;SHT30;61807;48.384;-4.386;2023-01-20T15:22:59;10.38;69.64
73547;SHT30;61807;48.384;-4.386;2023-01-20T15:25:26;10.38;69.51
73547;SHT30;61807;48.384;-4.386;2023-01-20T15:27:53;10.40;69.35
73547;SHT30;61807;48.384;-4.386;2023-01-20T15:30:20;10.38;69.51
73547;SHT30;61807;48.384;-4.386;2023-01-20T15:32:50;10.43;69.66
73547;SHT30;61807;48.384;-4.386;2023-01-20T15:35:17;10.48;69.56
73547;SHT30;61807;48.384;-4.386;2023-01-20T15:37:45;10.53;69.42
73547;SHT30;61807;48.384;-4.386;2023-01-20T15:40:19;10.57;69.55
73547;SHT30;61807;48.384;-4.386;2023-01-20T15:42:46;10.58;69.55
73547;SHT30;61807;48.384;-4.386;2023-01-20T15:45:12;10.64;69.61
73547;SHT30;61807;48.384;-4.386;2023-01-20T15:47:40;10.69;69.58
73547;SHT30;61807;48.384;-4.386;2023-01-20T15:50:15;10.79;69.59
73547;SHT30;61807;48.384;-4.386;2023-01-20T15:52:41;10.86;69.51
73547;SHT30;61807;48.384;-4.386;2023-01-20T15:55:10;10.81;69.38
73547;SHT30;61807;48.384;-4.386;2023-01-20T15:57:36;10.75;69.51
73547;SHT30;61807;48.384;-4.386;2023-01-20T16:00:02;10.71;69.71
73547;SHT30;61807;48.384;-4.386;2023-01-20T16:02:28;10.65;69.96
73547;SHT30;61807;48.384;-4.386;2023-01-20T16:04:53;10.60;70.05
73547;SHT30;61807;48.384;-4.386;2023-01-20T16:07:19;10.63;70.35
73547;SHT30;61807;48.384;-4.386;2023-01-20T16:09:45;10.67;70.33
73547;SHT30;61807;48.384;-4.386;2023-01-20T16:12:16;10.69;70.20
73547;SHT30;61807;48.384;-4.386;2023-01-20T16:14:43;10.71;70.15
73547;SHT30;61807;48.384;-4.386;2023-01-20T16:17:20;10.72;70.27
73547;SHT30;61807;48.384;-4.386;2023-01-20T16:19:46;10.74;70.46
73547;SHT30;61807;48.384;-4.386;2023-01-20T16:22:12;10.81;70.37
73547;SHT30;61807;48.384;-4.386;2023-01-20T16:24:38;10.89;70.43
73547;SHT30;61807;48.384;-4.386;2023-01-20T16:27:16;10.94;69.92
73547;SHT30;61807;48.384;-4.386;2023-01-20T16:29:42;10.92;69.99
73547;SHT30;61807;48.384;-4.386;2023-01-20T16:32:08;10.98;70.15
73547;SHT30;61807;48.384;-4.386;2023-01-20T16:34:33;11.01;70.10
73547;SHT30;61807;48.384;-4.386;2023-01-20T16:36:59;10.95;69.82
73547;SHT30;61807;48.384;-4.386;2023-01-20T16:39:24;10.92;70.13
73547;SHT30;61807;48.384;-4.386;2023-01-20T16:41:49;10.96;70.07
73547;SHT30;61807;48.384;-4.386;2023-01-20T16:44:15;10.94;70.05
73547;SHT30;61807;48.384;-4.386;2023-01-20T16:46:41;10.88;70.12
73547;SHT30;61807;48.384;-4.386;2023-01-20T16:49:06;10.85;70.54
73547;SHT30;61807;48.384;-4.386;2023-01-20T16:51:32;10.89;70.44
73547;SHT30;61807;48.384;-4.386;2023-01-20T16:53:58;10.89;70.32
73547;SHT30;61807;48.384;-4.386;2023-01-20T16:56:27;10.91;70.43
73547;SHT30;61807;48.384;-4.386;2023-01-20T16:58:54;10.92;70.49
73547;SHT30;61807;48.384;-4.386;2023-01-20T17:01:22;10.96;70.58
73547;SHT30;61807;48.384;-4.386;2023-01-20T17:03:54;10.98;70.41
73547;SHT30;61807;48.384;-4.386;2023-01-20T17:06:23;10.99;70.26
73547;SHT30;61807;48.384;-4.386;2023-01-20T17:08:51;10.99;70.42
73547;SHT30;61807;48.384;-4.386;2023-01-20T17:11:25;11.04;70.40
73547;SHT30;61807;48.384;-4.386;2023-01-20T17:13:51;11.04;70.11
73547;SHT30;61807;48.384;-4.386;2023-01-20T17:16:18;10.98;70.25
73547;SHT30;61807;48.384;-4.386;2023-01-20T17:18:50;11.02;70.48
73547;SHT30;61807;48.384;-4.386;2023-01-20T17:21:16;11.02;70.39
73547;SHT30;61807;48.384;-4.386;2023-01-20T17:23:48;11.05;70.40
73547;SHT30;61807;48.384;-4.386;2023-01-20T17:26:14;11.05;70.16
73547;SHT30;61807;48.384;-4.386;2023-01-20T17:28:39;11.05;70.29